Ryoho Maru No.2 — JD2964 — position and weather

sailwx.info

Track history (hours):
 
Tides and Currents Weather Stations Pressure Air Temp Water Temp Dewpoint Dewpoint Depression Visibility Wind Speed Wind Dir Waves Ship Positions

Ryoho Maru No.2

Last reported at 2014-Oct-08 04:33 UTC. Time now 2014-Oct-24 07:58 UTC.
Position N 35°09' E 139°46'.
Warning: this ship's position is 16 days out of date.

Length 57 m; draft 4 m.

Type: Tanker. MMSI: 431001062.

Date/timePositionNaut miles runAvg speedWind from/ knotsBaromVisibWave heightAir tempDewpointWater temp
2014-Oct-08 04:33N 35°09' E 139°46'9 9.5
2014-Oct-08 03:33N 35°19' E 139°43'9 9.4
2014-Oct-08 02:34N 35°28' E 139°46'4 3.3
2014-Oct-08 01:28N 35°32' E 139°45'0 0.0
2014-Oct-08 00:34N 35°32' E 139°45'1 1.1
2014-Oct-07 23:33N 35°31' E 139°46'3 2.1
2014-Oct-07 22:16N 35°30' E 139°49'0 0.0
2014-Oct-07 21:13N 35°30' E 139°49'0 0.0
2014-Oct-07 18:31N 35°30' E 139°50'0 0.0
2014-Oct-07 17:31N 35°30' E 139°50'0 0.0
2014-Oct-07 16:31N 35°30' E 139°50'0 0.0
2014-Oct-07 15:31N 35°30' E 139°50'0 0.0
2014-Oct-07 14:31N 35°30' E 139°50'0 0.0
2014-Oct-07 13:04N 35°30' E 139°50'0 0.0
2014-Oct-07 12:31N 35°30' E 139°50'0 0.0
2014-Oct-07 11:28N 35°30' E 139°50'0 0.0
2014-Oct-07 10:07N 35°30' E 139°49'0 0.0
2014-Oct-07 07:07N 35°30' E 139°49'0 0.0
2014-Oct-07 06:31N 35°30' E 139°49'3 3.3
2014-Oct-07 05:32N 35°30' E 139°54'6 0.9
2014-Oct-06 22:26N 35°29' E 140°01'1 0.1
2014-Oct-06 07:27N 35°29' E 139°60'7 1.5
2014-Oct-06 03:10N 35°35' E 140°04'0 0.1
2014-Oct-06 02:16N 35°35' E 140°04'6 0.2
2014-Oct-04 23:19N 35°29' E 139°60'0 0.0
2014-Oct-04 04:31N 35°29' E 139°60'4 1.7
2014-Oct-04 02:08N 35°29' E 139°55'610.3
2014-Oct-04 01:33N 35°26' E 139°49'10 9.6
2014-Oct-04 00:33N 35°17' E 139°46'1110.3
2014-Oct-03 23:27N 35°05' E 139°46'  
Track history (hours):
 
Tides and Currents Weather Stations Pressure Air Temp Water Temp Dewpoint Dewpoint Depression Visibility Wind Speed Wind Dir Waves Ship Positions

Ryoho Maru No.2

Last reported at 2014-Oct-08 04:33 UTC. Time now 2014-Oct-24 07:58 UTC.
Position N 35°09' E 139°46'.
Warning: this ship's position is 16 days out of date.

Length 57 m; draft 4 m.

Type: Tanker. MMSI: 431001062.

Date/timePositionNaut miles runAvg speedWind from/ knotsBaromVisibWave heightAir tempDewpointWater temp
2014-Oct-08 04:33N 35°09' E 139°46'9 9.5
2014-Oct-08 03:33N 35°19' E 139°43'9 9.4
2014-Oct-08 02:34N 35°28' E 139°46'4 3.3
2014-Oct-08 01:28N 35°32' E 139°45'0 0.0
2014-Oct-08 00:34N 35°32' E 139°45'1 1.1
2014-Oct-07 23:33N 35°31' E 139°46'3 2.1
2014-Oct-07 22:16N 35°30' E 139°49'0 0.0
2014-Oct-07 21:13N 35°30' E 139°49'0 0.0
2014-Oct-07 18:31N 35°30' E 139°50'0 0.0
2014-Oct-07 17:31N 35°30' E 139°50'0 0.0
2014-Oct-07 16:31N 35°30' E 139°50'0 0.0
2014-Oct-07 15:31N 35°30' E 139°50'0 0.0
2014-Oct-07 14:31N 35°30' E 139°50'0 0.0
2014-Oct-07 13:04N 35°30' E 139°50'0 0.0
2014-Oct-07 12:31N 35°30' E 139°50'0 0.0
2014-Oct-07 11:28N 35°30' E 139°50'0 0.0
2014-Oct-07 10:07N 35°30' E 139°49'0 0.0
2014-Oct-07 07:07N 35°30' E 139°49'0 0.0
2014-Oct-07 06:31N 35°30' E 139°49'3 3.3
2014-Oct-07 05:32N 35°30' E 139°54'6 0.9
2014-Oct-06 22:26N 35°29' E 140°01'1 0.1
2014-Oct-06 07:27N 35°29' E 139°60'7 1.5
2014-Oct-06 03:10N 35°35' E 140°04'0 0.1
2014-Oct-06 02:16N 35°35' E 140°04'6 0.2
2014-Oct-04 23:19N 35°29' E 139°60'0 0.0
2014-Oct-04 04:31N 35°29' E 139°60'4 1.7
2014-Oct-04 02:08N 35°29' E 139°55'610.3
2014-Oct-04 01:33N 35°26' E 139°49'10 9.6
2014-Oct-04 00:33N 35°17' E 139°46'1110.3
2014-Oct-03 23:27N 35°05' E 139°46'  

Dump ship's entire track history